createdAt,value
2022-08-20T00:03:31.616Z,25.39
2022-08-20T00:08:34.817Z,24.84
2022-08-20T00:13:43.959Z,24.44
2022-08-20T00:18:47.978Z,24.07
2022-08-20T00:23:56.127Z,23.75
2022-08-20T00:28:59.265Z,24.47
2022-08-20T00:34:02.353Z,26.51
2022-08-20T00:39:05.411Z,26.93
2022-08-20T00:44:19.912Z,25.73
2022-08-20T00:49:32.686Z,24.91
2022-08-20T00:54:48.667Z,24.40
2022-08-20T00:59:53.632Z,23.96
2022-08-20T01:04:57.481Z,24.49
2022-08-20T01:10:13.412Z,26.49
2022-08-20T01:15:23.258Z,26.87
2022-08-20T01:20:37.818Z,25.57
2022-08-20T01:26:03.572Z,24.75
2022-08-20T01:31:11.893Z,24.19
2022-08-20T01:36:18.035Z,23.75
2022-08-20T01:42:05.779Z,24.26
2022-08-20T01:47:36.391Z,26.43
2022-08-20T01:53:11.023Z,26.57
2022-08-20T01:58:14.138Z,25.10
2022-08-20T02:03:17.183Z,24.36
2022-08-20T02:08:22.255Z,23.85
2022-08-20T02:13:25.228Z,23.43
2022-08-20T02:18:28.330Z,24.01
2022-08-20T02:23:31.449Z,26.03
2022-08-20T02:28:34.939Z,26.78
2022-08-20T02:33:39.148Z,25.59
2022-08-20T02:38:42.350Z,24.52
2022-08-20T02:43:45.321Z,23.83
2022-08-20T02:48:48.291Z,23.33
2022-08-20T02:53:51.833Z,23.86
2022-08-20T02:58:54.933Z,25.88
2022-08-20T03:04:00.345Z,26.70
2022-08-20T03:09:07.972Z,25.60
2022-08-20T03:14:11.989Z,24.54
2022-08-20T03:19:15.029Z,23.88
2022-08-20T03:24:18.187Z,23.32
2022-08-20T03:29:21.220Z,23.75
2022-08-20T03:34:24.270Z,25.69
2022-08-20T03:39:27.333Z,26.53
2022-08-20T03:44:30.780Z,25.53
2022-08-20T03:49:35.903Z,24.49
2022-08-20T03:54:39.008Z,23.94
2022-08-20T03:59:44.648Z,23.55
2022-08-20T04:04:48.694Z,24.08
2022-08-20T04:09:56.891Z,26.07
2022-08-20T04:14:59.913Z,26.46
2022-08-20T04:20:06.947Z,25.16
2022-08-20T04:25:10.138Z,24.37
2022-08-20T04:30:23.146Z,23.91
2022-08-20T04:35:27.385Z,23.55
2022-08-20T04:40:49.968Z,24.21
2022-08-20T04:45:54.647Z,26.36
2022-08-20T04:50:59.025Z,26.77
2022-08-20T04:56:03.306Z,25.50
2022-08-20T05:01:11.924Z,24.75
2022-08-20T05:06:16.454Z,24.43
2022-08-20T05:11:34.053Z,24.35
2022-08-20T05:16:40.994Z,24.48
2022-08-20T05:21:44.239Z,24.74
2022-08-20T05:26:47.910Z,25.10
2022-08-20T05:31:51.215Z,25.43
2022-08-20T05:36:54.149Z,25.83
2022-08-20T05:41:59.376Z,26.29
2022-08-20T05:47:04.187Z,26.47
2022-08-20T05:52:07.410Z,26.51
2022-08-20T05:57:10.410Z,26.48
2022-08-20T06:02:32.393Z,26.38
2022-08-20T06:07:35.482Z,26.20
2022-08-20T06:12:39.201Z,26.02
2022-08-20T06:17:42.229Z,25.84
2022-08-20T06:22:45.267Z,25.62
2022-08-20T06:27:48.328Z,25.39
2022-08-20T06:32:51.462Z,25.15
2022-08-20T06:37:54.701Z,25.42
2022-08-20T06:42:58.262Z,27.47
2022-08-20T06:48:08.570Z,28.02
2022-08-20T06:53:16.685Z,26.91
2022-08-20T06:58:37.804Z,26.27
2022-08-20T07:03:54.569Z,25.88
2022-08-20T07:08:58.959Z,25.62
2022-08-20T07:14:05.630Z,25.53
2022-08-20T07:19:08.686Z,25.49
2022-08-20T07:24:12.872Z,26.26
2022-08-20T07:29:15.918Z,28.34
2022-08-20T07:34:24.544Z,28.08
2022-08-20T07:39:28.515Z,27.36
2022-08-20T07:44:34.330Z,27.03
2022-08-20T07:49:41.708Z,26.84
2022-08-20T07:54:45.253Z,26.69
2022-08-20T07:59:48.997Z,26.56
2022-08-20T08:04:52.152Z,26.49
2022-08-20T08:09:57.377Z,26.46
2022-08-20T08:15:00.666Z,26.47
2022-08-20T08:20:07.884Z,26.49
2022-08-20T08:25:13.365Z,26.51
2022-08-20T08:30:17.630Z,26.54
2022-08-20T08:35:20.657Z,26.58
2022-08-20T08:40:23.814Z,26.65
2022-08-20T08:45:45.731Z,26.74
2022-08-20T08:50:54.812Z,26.83
2022-08-20T08:55:58.790Z,26.93
2022-08-20T09:01:09.876Z,27.04
2022-08-20T09:06:32.986Z,27.13
2022-08-20T09:11:53.338Z,27.18
2022-08-20T09:16:56.339Z,27.24
2022-08-20T09:21:59.486Z,27.31
2022-08-20T09:27:02.951Z,27.36
2022-08-20T09:32:20.682Z,27.42
2022-08-20T09:37:27.753Z,27.45
2022-08-20T09:42:40.960Z,27.49
2022-08-20T09:48:10.309Z,27.54
2022-08-20T09:53:08.138Z,27.57
2022-08-20T09:58:53.752Z,27.61
2022-08-20T10:03:56.737Z,27.66
2022-08-20T10:08:59.815Z,27.73
2022-08-20T10:14:03.332Z,27.79
2022-08-20T10:19:07.026Z,27.85
2022-08-20T10:24:10.076Z,27.90
2022-08-20T10:29:14.277Z,27.92
2022-08-20T10:34:17.829Z,27.94
2022-08-20T10:39:20.849Z,27.97
2022-08-20T10:44:23.869Z,27.98
2022-08-20T10:49:26.856Z,28.01
2022-08-20T10:54:29.859Z,28.03
2022-08-20T10:59:32.838Z,28.07
2022-08-20T11:04:37.215Z,28.14
2022-08-20T11:09:40.516Z,28.21
2022-08-20T11:14:43.548Z,28.23
2022-08-20T11:19:46.705Z,28.27
2022-08-20T11:24:50.077Z,28.29
2022-08-20T11:29:53.581Z,28.30
2022-08-20T11:34:56.585Z,28.31
2022-08-20T11:39:59.576Z,28.33
2022-08-20T11:45:02.968Z,28.39
2022-08-20T11:50:20.198Z,28.46
2022-08-20T11:55:23.574Z,28.52
2022-08-20T12:00:34.629Z,28.62
2022-08-20T12:05:41.410Z,28.69
2022-08-20T12:10:44.518Z,28.70
2022-08-20T12:15:50.295Z,28.71
2022-08-20T12:20:53.673Z,28.70
2022-08-20T12:25:56.705Z,28.69
2022-08-20T12:31:02.455Z,28.66
2022-08-20T12:36:06.209Z,28.65
2022-08-20T12:41:09.231Z,28.64
2022-08-20T12:46:12.307Z,28.63
2022-08-20T12:51:15.292Z,28.65
2022-08-20T12:56:18.321Z,28.67
2022-08-20T13:01:21.384Z,28.67
2022-08-20T13:06:24.423Z,28.67
2022-08-20T13:11:27.592Z,28.69
2022-08-20T13:16:30.690Z,28.69
2022-08-20T13:21:33.827Z,28.65
2022-08-20T13:26:36.799Z,28.60
2022-08-20T13:31:42.332Z,28.58
2022-08-20T13:36:45.396Z,28.55
2022-08-20T13:41:48.578Z,28.52
2022-08-20T13:46:51.573Z,28.51
2022-08-20T13:51:55.739Z,28.49
2022-08-20T13:57:20.180Z,28.47
2022-08-20T14:02:24.469Z,28.43
2022-08-20T14:07:32.835Z,28.42
2022-08-20T14:12:36.319Z,28.40
2022-08-20T14:17:43.538Z,28.38
2022-08-20T14:22:47.132Z,28.37
2022-08-20T14:27:51.140Z,28.37
2022-08-20T14:32:55.297Z,28.32
2022-08-20T14:37:58.883Z,28.27
2022-08-20T14:43:03.514Z,28.24
2022-08-20T14:48:09.468Z,28.20
2022-08-20T14:53:12.472Z,28.15
2022-08-20T14:58:17.118Z,28.11
2022-08-20T15:03:24.045Z,28.07
2022-08-20T15:08:28.852Z,28.06
2022-08-20T15:13:32.153Z,28.05
2022-08-20T15:18:35.479Z,28.03
2022-08-20T15:23:38.515Z,28.00
2022-08-20T15:28:41.852Z,27.96
2022-08-20T15:33:44.838Z,27.89
2022-08-20T15:38:47.929Z,27.80
2022-08-20T15:43:50.917Z,27.69
2022-08-20T15:48:54.014Z,27.62
2022-08-20T15:53:58.822Z,27.57
2022-08-20T15:59:34.252Z,27.50
2022-08-20T16:05:00.048Z,27.44
2022-08-20T16:10:26.747Z,27.38
2022-08-20T16:15:34.897Z,27.32
2022-08-20T16:20:48.734Z,27.27
2022-08-20T16:26:23.513Z,27.20
2022-08-20T16:31:40.929Z,27.14
2022-08-20T16:37:17.329Z,27.06
2022-08-20T16:42:25.945Z,26.99
2022-08-20T16:47:33.713Z,26.91
2022-08-20T16:52:36.856Z,26.83
2022-08-20T16:57:40.011Z,26.76
2022-08-20T17:03:06.466Z,26.67
2022-08-20T17:08:19.018Z,26.56
2022-08-20T17:13:37.242Z,26.46
2022-08-20T17:18:52.959Z,26.36
2022-08-20T17:24:27.754Z,26.27
2022-08-20T17:29:47.428Z,26.16
2022-08-20T17:34:57.048Z,26.06
2022-08-20T17:40:15.606Z,25.98
2022-08-20T17:45:29.997Z,25.89
2022-08-20T17:50:39.134Z,25.81
2022-08-20T17:55:43.009Z,25.73
2022-08-20T18:00:46.434Z,25.66
2022-08-20T18:06:29.870Z,25.57
2022-08-20T18:12:01.919Z,25.49
2022-08-20T18:17:50.404Z,25.41
2022-08-20T18:23:24.324Z,25.34
2022-08-20T18:28:46.457Z,25.27
2022-08-20T18:33:49.460Z,25.20
2022-08-20T18:39:23.659Z,25.14
2022-08-20T18:44:40.275Z,25.07
2022-08-20T18:49:43.283Z,24.99
2022-08-20T18:54:56.580Z,24.92
2022-08-20T19:00:17.918Z,24.85
2022-08-20T19:05:37.032Z,24.79
2022-08-20T19:10:46.110Z,24.72
2022-08-20T19:15:55.420Z,24.67
2022-08-20T19:21:02.691Z,24.60
2022-08-20T19:26:25.476Z,24.52
2022-08-20T19:31:35.261Z,24.44
2022-08-20T19:36:42.888Z,24.35
2022-08-20T19:42:26.051Z,24.28
2022-08-20T19:47:41.491Z,24.19
2022-08-20T19:53:08.632Z,24.11
2022-08-20T19:58:26.678Z,24.02
2022-08-20T20:03:35.379Z,23.95
2022-08-20T20:08:50.526Z,23.87
2022-08-20T20:13:53.983Z,23.80
2022-08-20T20:19:22.797Z,23.74
2022-08-20T20:24:28.738Z,23.70
2022-08-20T20:29:37.488Z,24.53
2022-08-20T20:34:55.199Z,26.75
2022-08-20T20:40:08.272Z,27.19
2022-08-20T20:45:34.999Z,25.99
2022-08-20T20:50:40.817Z,25.31
2022-08-20T20:55:55.321Z,24.84
2022-08-20T21:00:58.293Z,24.47
2022-08-20T21:06:02.765Z,24.15
2022-08-20T21:11:05.903Z,23.88
2022-08-20T21:16:09.174Z,23.68
2022-08-20T21:21:12.363Z,23.53
2022-08-20T21:26:18.924Z,23.42
2022-08-20T21:31:29.513Z,23.31
2022-08-20T21:36:33.151Z,24.07
2022-08-20T21:41:38.246Z,26.26
2022-08-20T21:46:41.296Z,26.73
2022-08-20T21:51:44.463Z,25.60
2022-08-20T21:57:11.537Z,24.89
2022-08-20T22:02:16.426Z,24.44
2022-08-20T22:07:19.630Z,24.11
2022-08-20T22:12:26.775Z,23.83
2022-08-20T22:17:29.958Z,23.59
2022-08-20T22:22:33.303Z,23.37
2022-08-20T22:27:36.389Z,23.99
2022-08-20T22:32:51.296Z,26.13
2022-08-20T22:37:55.956Z,26.54
2022-08-20T22:42:59.122Z,25.31
2022-08-20T22:48:03.029Z,24.55
2022-08-20T22:53:07.958Z,24.06
2022-08-20T22:58:11.435Z,23.67
2022-08-20T23:03:18.055Z,23.33
2022-08-20T23:08:34.931Z,23.00
2022-08-20T23:13:38.478Z,23.60
2022-08-20T23:18:41.552Z,25.67
2022-08-20T23:23:44.558Z,26.10
2022-08-20T23:28:47.909Z,24.84
2022-08-20T23:33:50.895Z,24.00
2022-08-20T23:38:54.281Z,23.50
2022-08-20T23:43:57.316Z,23.12
2022-08-20T23:49:00.338Z,22.80
2022-08-20T23:54:04.018Z,23.37
2022-08-20T23:59:07.022Z,25.48
